Time;durP1;ratioP1;P1;durP2;ratioP2;P2;SDS_P1;SDS_P2;PMS_P1;PMS_P2;Temp;Humidity;BMP_temperature;BMP_pressure;BME280_temperature;BME280_humidity;BME280_pressure;Samples;Min_cycle;Max_cycle;Signal;HPM_P1;HPM_P2
2021/08/06 00:00:24;;;;;;;4.33;2.50;;;;;;;14.11;100.00;97266.00;2163815;82;20885;-83
2021/08/06 00:03:26;;;;;;;2.75;2.10;;;;;;;14.11;100.00;97267.77;2135009;82;20921;-82
2021/08/06 00:06:27;;;;;;;2.40;2.20;;;;;;;14.10;100.00;97267.35;2163691;82;20905;-82
2021/08/06 00:09:27;;;;;;;2.17;2.08;;;;;;;14.09;100.00;97263.87;2163629;82;20924;-82
2021/08/06 00:12:28;;;;;;;4.53;2.30;;;;;;;14.08;100.00;97260.84;2163615;82;20913;-81
2021/08/06 00:15:28;;;;;;;2.45;2.25;;;;;;;14.08;100.00;97253.41;2163895;82;21337;-82
2021/08/06 00:18:30;;;;;;;2.30;2.20;;;;;;;14.08;100.00;97253.41;2163080;82;21024;-82
2021/08/06 00:21:30;;;;;;;2.42;2.20;;;;;;;14.07;100.00;97250.38;2163396;82;20960;-82
2021/08/06 00:27:59;;;;;;;2.12;2.02;;;;;;;14.08;100.00;97271.78;2236136;79;23301;-83
2021/08/06 00:31:00;;;;;;;2.47;2.27;;;;;;;14.01;100.00;97271.08;2095319;85;21417;-81
2021/08/06 00:34:00;;;;;;;2.62;2.42;;;;;;;14.00;100.00;97274.16;2174364;81;21008;-81
2021/08/06 00:37:01;;;;;;;2.33;2.22;;;;;;;13.98;100.00;97266.78;2174272;82;20976;-81
2021/08/06 00:40:01;;;;;;;2.40;2.25;;;;;;;13.97;100.00;97271.62;2173986;82;20973;-81
2021/08/06 00:43:02;;;;;;;2.50;2.30;;;;;;;13.97;100.00;97278.17;2174283;82;20959;-81
2021/08/06 00:46:02;;;;;;;4.05;2.30;;;;;;;13.96;100.00;97263.78;2174013;82;21368;-82
2021/08/06 00:49:03;;;;;;;3.13;2.83;;;;;;;13.94;100.00;97258.58;2174046;82;21007;-83
2021/08/06 00:52:03;;;;;;;3.20;3.00;;;;;;;13.93;100.00;97271.73;2174262;82;20937;-83
2021/08/06 00:55:07;;;;;;;6.87;3.50;;;;;;;13.92;100.00;97263.46;2174126;81;20941;-82
2021/08/06 00:58:08;;;;;;;3.52;3.22;;;;;;;13.91;100.00;97284.89;2174485;82;20980;-82
2021/08/06 01:01:08;;;;;;;3.72;3.42;;;;;;;13.90;100.00;97272.68;2174174;82;20957;-82
2021/08/06 01:04:09;;;;;;;3.80;3.50;;;;;;;13.92;100.00;97271.33;2174172;82;20992;-82
2021/08/06 01:07:09;;;;;;;5.72;3.98;;;;;;;13.91;100.00;97273.09;2174234;82;20984;-82
2021/08/06 01:10:09;;;;;;;3.92;3.62;;;;;;;13.89;100.00;97281.91;2174147;82;20976;-82
2021/08/06 01:13:10;;;;;;;4.35;4.05;;;;;;;13.89;100.00;97264.41;2174323;82;21336;-81
2021/08/06 01:16:10;;;;;;;3.90;3.60;;;;;;;13.90;100.00;97260.88;2174338;82;21331;-82
2021/08/06 01:19:11;;;;;;;7.92;3.85;;;;;;;13.89;100.00;97267.02;2174544;82;21290;-82
2021/08/06 01:22:12;;;;;;;4.28;3.92;;;;;;;13.89;100.00;97264.41;2174243;82;20949;-81
2021/08/06 01:25:12;;;;;;;4.30;4.00;;;;;;;13.88;100.00;97253.95;2174162;81;20972;-83
2021/08/06 01:28:13;;;;;;;4.62;4.22;;;;;;;13.88;100.00;97244.32;2171240;82;20984;-82
2021/08/06 01:31:14;;;;;;;3.98;3.72;;;;;;;13.89;100.00;97243.42;2172682;82;21332;-82
2021/08/06 01:34:14;;;;;;;4.65;4.25;;;;;;;13.92;100.00;97247.72;2171863;82;21344;-81
2021/08/06 01:37:15;;;;;;;4.20;3.90;;;;;;;13.90;100.00;97237.72;2170813;82;20925;-82
2021/08/06 01:40:16;;;;;;;5.40;4.25;;;;;;;13.91;100.00;97251.25;2172107;82;20957;-82
2021/08/06 01:43:16;;;;;;;5.10;4.70;;;;;;;13.91;100.00;97229.81;2171254;82;20942;-81
2021/08/06 01:46:17;;;;;;;4.80;4.40;;;;;;;13.91;100.00;97236.37;2170324;82;20999;-82
2021/08/06 01:49:18;;;;;;;5.20;4.80;;;;;;;13.91;100.00;97246.86;2171355;82;20957;-82
2021/08/06 01:52:18;;;;;;;4.45;4.15;;;;;;;13.92;100.00;97249.03;2172174;82;20996;-82
2021/08/06 01:55:19;;;;;;;7.53;5.28;;;;;;;13.91;100.00;97236.37;2172362;82;20968;-83
2021/08/06 01:58:19;;;;;;;4.67;4.35;;;;;;;13.92;100.00;97247.72;2172049;82;20964;-84
2021/08/06 02:01:20;;;;;;;4.60;4.20;;;;;;;13.91;100.00;97236.37;2170515;82;20992;-81
2021/08/06 02:04:20;;;;;;;4.62;4.22;;;;;;;13.92;100.00;97255.59;2170389;82;20969;-82
2021/08/06 02:07:21;;;;;;;4.40;3.98;;;;;;;13.91;100.00;97240.75;2170367;82;20980;-82
2021/08/06 02:10:21;;;;;;;5.37;4.08;;;;;;;13.92;100.00;97239.85;2171267;82;20953;-82
2021/08/06 02:13:22;;;;;;;4.50;4.20;;;;;;;13.92;100.00;97251.20;2170228;82;20968;-83
2021/08/06 02:16:22;;;;;;;6.85;4.00;;;;;;;13.92;100.00;97253.83;2172101;82;20988;-83
2021/08/06 02:19:23;;;;;;;10.20;4.03;;;;;;;13.91;100.00;97252.56;2170132;82;21011;-82
2021/08/06 02:22:23;;;;;;;4.58;4.28;;;;;;;13.89;100.00;97236.86;2170244;82;20981;-81
2021/08/06 02:25:24;;;;;;;5.12;4.60;;;;;;;13.89;100.00;97236.86;2172103;82;21011;-82
2021/08/06 02:28:24;;;;;;;4.42;4.12;;;;;;;13.90;100.00;97248.21;2170271;81;20977;-81
2021/08/06 02:31:25;;;;;;;4.87;4.50;;;;;;;13.89;100.00;97238.62;2169688;82;20937;-82
2021/08/06 02:34:25;;;;;;;4.53;4.17;;;;;;;13.88;100.00;97232.52;2171211;82;20957;-82
2021/08/06 02:37:26;;;;;;;3.98;3.60;;;;;;;13.88;100.00;97229.03;2172127;82;21404;-82
2021/08/06 02:40:26;;;;;;;3.77;3.58;;;;;;;13.87;100.00;97240.39;2171166;82;20988;-82
2021/08/06 02:43:27;;;;;;;3.90;3.52;;;;;;;13.86;100.00;97234.73;2170017;82;21027;-82
2021/08/06 02:46:28;;;;;;;6.40;3.27;;;;;;;13.85;100.00;97229.95;2171006;81;20965;-82
2021/08/06 02:49:31;;;;;;;3.30;3.10;;;;;;;13.84;100.00;97237.41;2171672;82;20977;-82
2021/08/06 02:52:30;;;;;;;2.40;2.30;;;;;;;13.84;100.00;97224.73;2170963;81;21064;-82
2021/08/06 02:55:31;;;;;;;2.30;2.20;;;;;;;13.84;100.00;97226.05;2171004;82;21345;-82
2021/08/06 02:58:31;;;;;;;2.15;2.05;;;;;;;13.84;100.00;97233.47;2170025;82;21406;-80
2021/08/06 03:01:32;;;;;;;2.70;2.52;;;;;;;13.84;100.00;97233.92;2171156;82;21000;-82
2021/08/06 03:04:33;;;;;;;4.12;2.50;;;;;;;13.83;100.00;97231.75;2170464;82;20957;-82
2021/08/06 03:07:33;;;;;;;2.20;2.10;;;;;;;13.82;100.00;97237.89;2172318;82;20977;-82
2021/08/06 03:10:34;;;;;;;2.50;2.30;;;;;;;13.82;100.00;97235.72;2171144;82;20925;-82
2021/08/06 03:13:35;;;;;;;3.12;2.27;;;;;;;13.83;100.00;97243.55;2170126;82;21011;-85
2021/08/06 03:16:35;;;;;;;2.17;2.08;;;;;;;13.81;100.00;97233.55;2171218;82;21309;-83
2021/08/06 03:19:36;;;;;;;2.30;2.10;;;;;;;13.81;100.00;97246.66;2171147;82;20941;-84
2021/08/06 03:22:36;;;;;;;2.15;2.05;;;;;;;13.81;100.00;97240.11;2172517;82;20921;-83
2021/08/06 03:25:37;;;;;;;2.35;2.15;;;;;;;13.80;100.00;97246.25;2170089;82;21023;-82
2021/08/06 03:28:38;;;;;;;2.40;2.20;;;;;;;13.79;100.00;97247.16;2170197;81;21043;-82
2021/08/06 03:31:38;;;;;;;2.10;2.00;;;;;;;13.82;100.00;97246.21;2170201;82;21016;-84
2021/08/06 03:34:39;;;;;;;2.20;2.10;;;;;;;13.92;100.00;97249.03;2171355;82;21049;-82
2021/08/06 03:37:39;;;;;;;2.30;2.20;;;;;;;13.86;100.00;97251.78;2173660;82;21243;-83
2021/08/06 03:40:40;;;;;;;2.22;2.12;;;;;;;13.83;100.00;97248.80;2171477;82;20980;-82
2021/08/06 03:43:40;;;;;;;2.55;2.35;;;;;;;13.82;100.00;97254.08;2171968;82;20999;-80
2021/08/06 03:46:41;;;;;;;2.60;2.37;;;;;;;13.81;100.00;97254.53;2170625;82;21036;-81
2021/08/06 03:49:41;;;;;;;3.35;3.15;;;;;;;13.82;100.00;97252.31;2171957;82;21004;-82
2021/08/06 03:52:42;;;;;;;2.98;2.77;;;;;;;13.80;100.00;97259.36;2170611;82;20977;-82
2021/08/06 03:55:44;;;;;;;2.67;2.58;;;;;;;13.81;100.00;97255.84;2171163;82;21248;-80
2021/08/06 03:58:44;;;;;;;2.98;2.77;;;;;;;13.81;100.00;97249.73;2171860;82;21293;-81
2021/08/06 04:01:45;;;;;;;2.65;2.45;;;;;;;13.80;100.00;97246.25;2170318;82;20996;-81
2021/08/06 04:04:45;;;;;;;4.65;2.70;;;;;;;13.80;100.00;97251.50;2169822;82;20933;-83
2021/08/06 04:07:46;;;;;;;2.52;2.33;;;;;;;13.81;100.00;97255.84;2169272;82;21036;-81
2021/08/06 04:10:47;;;;;;;2.45;2.30;;;;;;;13.81;100.00;97246.66;2171004;82;20997;-81
2021/08/06 04:13:47;;;;;;;2.05;1.95;;;;;;;13.80;100.00;97244.94;2169434;82;21028;-83
2021/08/06 04:16:48;;;;;;;2.60;2.40;;;;;;;13.80;100.00;97255.44;2169246;82;21416;-82
2021/08/06 04:19:49;;;;;;;3.40;2.20;;;;;;;13.82;100.00;97246.21;2170808;82;20945;-81
2021/08/06 04:22:49;;;;;;;2.20;2.10;;;;;;;13.82;100.00;97256.70;2171697;82;20952;-79
2021/08/06 04:25:50;;;;;;;2.10;2.00;;;;;;;13.82;100.00;97251.45;2169866;82;20981;-81
2021/08/06 04:28:50;;;;;;;2.05;1.95;;;;;;;13.82;100.00;97244.45;2171843;81;21067;-81
2021/08/06 04:31:51;;;;;;;4.35;1.80;;;;;;;13.82;100.00;97278.55;2170963;82;20965;-80
2021/08/06 04:34:52;;;;;;;1.80;1.70;;;;;;;13.82;100.00;97262.81;2171835;82;20988;-81
2021/08/06 04:37:52;;;;;;;1.57;1.57;;;;;;;13.83;100.00;97259.28;2172763;82;20968;-82
2021/08/06 04:40:52;;;;;;;1.67;1.57;;;;;;;13.84;100.00;97270.64;2171299;82;20981;-80
2021/08/06 04:43:53;;;;;;;1.52;1.47;;;;;;;13.83;100.00;97264.98;2171771;82;20965;-80
2021/08/06 04:46:54;;;;;;;1.25;1.25;;;;;;;13.85;100.00;97274.53;2170722;82;21007;-80
2021/08/06 04:49:54;;;;;;;1.25;1.02;;;;;;;13.85;100.00;97267.97;2172952;82;21028;-80
2021/08/06 04:52:56;;;;;;;1.00;1.00;;;;;;;13.87;100.00;97280.63;2172766;82;20979;-80
2021/08/06 04:55:57;;;;;;;2.70;1.00;;;;;;;13.88;100.00;97277.11;2171348;82;20988;-80
2021/08/06 04:58:57;;;;;;;0.98;0.90;;;;;;;13.90;100.00;97269.20;2171975;82;21016;-81
2021/08/06 05:01:58;;;;;;;3.02;1.00;;;;;;;13.92;100.00;97285.75;2170803;82;21028;-81
2021/08/06 05:05:01;;;;;;;0.98;0.90;;;;;;;13.90;100.00;97278.38;2170669;82;20949;-79
2021/08/06 05:08:01;;;;;;;1.27;1.10;;;;;;;13.88;100.00;97286.29;2170031;82;21060;-82
2021/08/06 05:11:01;;;;;;;1.20;1.20;;;;;;;13.88;100.00;97279.73;2169859;82;20996;-79
2021/08/06 05:14:02;;;;;;;0.72;0.72;;;;;;;13.84;100.00;97301.66;2171665;82;20979;-80
2021/08/06 05:17:02;;;;;;;3.42;0.82;;;;;;;13.83;100.00;97285.52;2172220;82;20964;-80
2021/08/06 05:20:03;;;;;;;0.98;0.90;;;;;;;13.81;100.00;97292.55;2170048;82;21400;-80
2021/08/06 05:23:03;;;;;;;2.47;0.88;;;;;;;13.80;100.00;97288.22;2170523;82;20988;-79
2021/08/06 05:26:04;;;;;;;0.72;0.72;;;;;;;13.79;100.00;97307.47;2171371;82;20957;-79
2021/08/06 05:29:05;;;;;;;2.60;0.85;;;;;;;13.79;100.00;97292.19;2169872;82;21009;-78
2021/08/06 05:32:05;;;;;;;2.35;1.10;;;;;;;13.79;100.00;97293.05;2169380;82;20945;-78
2021/08/06 05:35:06;;;;;;;1.50;1.25;;;;;;;13.81;100.00;97297.80;2169134;82;21028;-79
2021/08/06 05:38:06;;;;;;;1.40;1.30;;;;;;;13.86;100.00;97286.74;2169421;82;21329;-78
2021/08/06 05:41:07;;;;;;;1.20;1.20;;;;;;;13.88;100.00;97286.29;2169372;82;20981;-77
2021/08/06 05:44:07;;;;;;;1.35;1.35;;;;;;;13.91;100.00;97303.70;2170380;82;20917;-78
2021/08/06 05:47:09;;;;;;;1.67;1.57;;;;;;;13.94;100.00;97298.38;2170416;82;21008;-77
2021/08/06 05:50:09;;;;;;;2.02;1.87;;;;;;;13.99;100.00;97294.73;2169324;82;20964;-77
2021/08/06 05:53:10;;;;;;;3.70;2.42;;;;;;;14.05;100.00;97305.97;2168122;82;20953;-79
2021/08/06 05:56:10;;;;;;;1.65;1.55;;;;;;;14.13;100.00;97301.38;2168698;82;21396;-77
2021/08/06 05:59:10;;;;;;;1.27;1.20;;;;;;;14.21;100.00;97309.91;2169005;82;21064;-78
2021/08/06 06:02:11;;;;;;;1.10;1.10;;;;;;;14.25;100.00;97312.86;2168357;82;20984;-78
2021/08/06 06:05:12;;;;;;;1.10;1.10;;;;;;;14.29;100.00;97309.25;2169379;82;21039;-78
2021/08/06 06:08:12;;;;;;;1.00;1.00;;;;;;;14.34;99.36;97315.23;2170059;82;20972;-78
2021/08/06 06:11:13;;;;;;;1.30;1.30;;;;;;;14.40;99.11;97320.77;2169190;82;20957;-77
2021/08/06 06:14:14;;;;;;;2.62;1.00;;;;;;;14.46;98.96;97316.23;2168916;82;21341;-79
2021/08/06 06:17:15;;;;;;;1.12;1.02;;;;;;;14.50;98.02;97318.33;2168367;82;20914;-77
2021/08/06 06:20:15;;;;;;;0.90;0.90;;;;;;;14.52;97.82;97320.00;2170555;82;20948;-78
2021/08/06 06:23:16;;;;;;;1.02;1.02;;;;;;;14.53;97.28;97328.29;2169741;82;20960;-78
2021/08/06 06:26:17;;;;;;;1.10;1.10;;;;;;;14.54;96.71;97337.03;2169465;82;20965;-77
2021/08/06 06:29:17;;;;;;;0.80;0.80;;;;;;;14.58;97.39;97341.29;2170663;81;21063;-78
2021/08/06 06:32:18;;;;;;;1.17;1.07;;;;;;;14.58;97.11;97330.34;2170255;82;20981;-77
2021/08/06 06:35:18;;;;;;;0.80;0.80;;;;;;;14.57;96.83;97336.48;2171774;82;21036;-77
2021/08/06 06:38:18;;;;;;;1.30;0.90;;;;;;;14.57;96.97;97348.30;2171994;81;21417;-77
2021/08/06 06:41:19;;;;;;;0.82;0.82;;;;;;;14.58;96.79;97350.48;2169881;81;20969;-77
2021/08/06 06:44:20;;;;;;;1.10;1.00;;;;;;;14.55;96.45;97342.23;2169371;82;21301;-77
2021/08/06 06:47:20;;;;;;;0.80;0.80;;;;;;;14.57;96.79;97342.20;2169198;82;21007;-77
2021/08/06 06:50:21;;;;;;;0.90;0.90;;;;;;;14.58;96.59;97350.03;2170709;82;20988;-75
2021/08/06 06:53:21;;;;;;;1.87;1.10;;;;;;;14.63;96.79;97357.33;2169467;82;20945;-77
2021/08/06 06:56:22;;;;;;;1.37;1.17;;;;;;;14.63;95.80;97363.89;2170860;82;20972;-77
2021/08/06 06:59:22;;;;;;;1.52;1.20;;;;;;;14.65;96.12;97356.83;2170261;81;21024;-77
2021/08/06 07:02:23;;;;;;;1.72;1.40;;;;;;;14.66;96.12;97361.18;2170330;82;21001;-77
2021/08/06 07:05:23;;;;;;;1.60;1.50;;;;;;;14.69;96.03;97363.31;2168583;81;20957;-77
2021/08/06 07:08:24;;;;;;;1.50;1.40;;;;;;;14.70;95.74;97371.15;2168775;82;20992;-78
2021/08/06 07:11:24;;;;;;;1.50;1.40;;;;;;;14.74;96.15;97364.94;2168056;82;21043;-78
2021/08/06 07:14:25;;;;;;;2.52;1.95;;;;;;;14.74;95.34;97374.13;2170827;82;20988;-77
2021/08/06 07:17:25;;;;;;;1.72;1.62;;;;;;;14.76;95.50;97369.70;2170660;82;21013;-77
2021/08/06 07:20:26;;;;;;;1.95;1.85;;;;;;;14.78;95.55;97372.28;2170510;81;20999;-78
2021/08/06 07:23:26;;;;;;;2.05;1.90;;;;;;;14.79;95.63;97389.76;2170025;82;21628;-77
2021/08/06 07:26:27;;;;;;;2.30;2.10;;;;;;;14.81;95.50;97380.07;2168735;82;21011;-76
2021/08/06 07:29:27;;;;;;;2.10;2.00;;;;;;;14.72;94.58;97381.61;2174653;81;21000;-76
2021/08/06 07:32:28;;;;;;;2.37;2.27;;;;;;;14.72;94.58;97381.61;2168999;82;21016;-76
2021/08/06 07:35:33;;;;;;;2.20;2.10;;;;;;;14.74;94.79;97386.37;2168769;82;21028;-76
2021/08/06 07:38:31;;;;;;;2.85;2.60;;;;;;;14.69;94.82;97394.83;2169463;81;20991;-76
2021/08/06 07:41:32;;;;;;;3.72;2.15;;;;;;;14.68;95.04;97397.05;2169412;82;20984;-76
2021/08/06 07:44:32;;;;;;;2.87;2.52;;;;;;;14.66;94.54;97408.45;2169012;81;20953;-77
2021/08/06 07:47:33;;;;;;;5.00;2.55;;;;;;;14.68;95.12;97399.22;2168455;82;21108;-78
2021/08/06 07:50:33;;;;;;;3.60;2.40;;;;;;;14.61;94.86;97407.72;2168714;82;20965;-77
2021/08/06 07:53:34;;;;;;;3.22;2.40;;;;;;;14.63;94.95;97420.80;2169128;82;20945;-77
2021/08/06 07:56:34;;;;;;;3.00;2.70;;;;;;;14.58;94.59;97415.67;2168762;82;20976;-77
2021/08/06 07:59:35;;;;;;;2.42;2.33;;;;;;;14.53;94.62;97422.81;2168479;82;21440;-76
2021/08/06 08:02:37;;;;;;;2.47;2.27;;;;;;;14.52;95.16;97432.91;2168469;82;20977;-79
2021/08/06 08:05:37;;;;;;;2.62;2.42;;;;;;;14.50;95.11;97429.45;2168581;82;20972;-78
2021/08/06 08:08:38;;;;;;;3.08;2.87;;;;;;;14.49;94.88;97427.73;2168295;82;21624;-78
2021/08/06 08:11:38;;;;;;;2.90;2.62;;;;;;;14.46;94.84;97433.06;2168213;82;20936;-78
2021/08/06 08:14:39;;;;;;;2.40;2.30;;;;;;;14.48;95.10;97449.64;2168849;82;21013;-78
2021/08/06 08:17:40;;;;;;;2.60;2.40;;;;;;;14.52;94.64;97447.80;2169204;82;21435;-78
2021/08/06 08:20:40;;;;;;;2.92;2.72;;;;;;;14.52;94.44;97446.03;2168582;82;21368;-78
2021/08/06 08:23:41;;;;;;;2.87;2.60;;;;;;;14.55;94.68;97448.58;2169028;82;20992;-78
2021/08/06 08:26:41;;;;;;;2.40;2.30;;;;;;;14.54;94.11;97455.19;2168567;81;21017;-78
2021/08/06 08:29:44;;;;;;;2.40;2.20;;;;;;;14.54;94.26;97456.50;2167579;81;21530;-77
2021/08/06 08:32:44;;;;;;;2.40;2.20;;;;;;;14.49;93.43;97465.80;2169677;82;21630;-78
2021/08/06 08:35:45;;;;;;;3.12;2.40;;;;;;;14.46;93.51;97465.88;2169138;82;20953;-78
2021/08/06 08:38:45;;;;;;;3.00;2.80;;;;;;;14.43;94.35;97471.66;2169018;82;20936;-78
2021/08/06 08:41:46;;;;;;;3.40;3.20;;;;;;;14.46;94.48;97473.76;2170124;82;21323;-78
2021/08/06 08:44:46;;;;;;;2.98;2.72;;;;;;;14.48;94.34;97473.27;2169170;82;21404;-78
2021/08/06 08:47:47;;;;;;;4.37;3.12;;;;;;;14.50;94.24;97472.78;2170755;82;21044;-78
2021/08/06 08:50:47;;;;;;;3.58;3.30;;;;;;;14.61;95.05;97470.73;2169540;82;20993;-78
2021/08/06 08:53:48;;;;;;;3.47;3.12;;;;;;;14.68;94.14;97476.70;2167957;82;20956;-77
2021/08/06 08:56:48;;;;;;;4.75;2.80;;;;;;;14.74;93.77;97488.39;2168975;82;20949;-78
2021/08/06 08:59:49;;;;;;;2.70;2.50;;;;;;;14.79;92.84;97489.58;2169396;82;21024;-77
2021/08/06 09:02:49;;;;;;;3.10;2.90;;;;;;;14.79;92.85;97501.40;2168879;82;21305;-78
2021/08/06 09:05:50;;;;;;;3.70;3.37;;;;;;;14.77;93.18;97491.38;2168966;82;21633;-77
2021/08/06 09:08:51;;;;;;;3.42;2.75;;;;;;;14.78;93.45;97490.48;2170354;82;21020;-77
2021/08/06 09:11:52;;;;;;;3.00;2.70;;;;;;;14.70;92.97;97501.61;2169343;82;20941;-77
2021/08/06 09:14:52;;;;;;;2.62;2.42;;;;;;;14.70;92.97;97501.61;2168436;82;21024;-78
2021/08/06 09:17:54;;;;;;;2.80;2.60;;;;;;;14.56;92.72;97505.89;2171018;82;20977;-78
2021/08/06 09:20:55;;;;;;;2.37;2.27;;;;;;;14.53;93.17;97508.15;2170678;82;20942;-78
2021/08/06 09:23:55;;;;;;;3.60;3.30;;;;;;;14.53;93.02;97511.22;2169521;82;20957;-77
2021/08/06 09:26:59;;;;;;;2.90;2.70;;;;;;;14.58;93.03;97511.52;2172314;82;21020;-77
2021/08/06 09:29:59;;;;;;;5.75;2.62;;;;;;;14.59;92.97;97513.25;2169126;81;21059;-78
2021/08/06 09:33:00;;;;;;;3.75;3.35;;;;;;;14.56;92.80;97532.16;2169117;82;20967;-78
2021/08/06 09:36:00;;;;;;;3.22;3.02;;;;;;;14.49;93.09;97517.45;2169543;82;21036;-77
2021/08/06 09:39:01;;;;;;;3.60;3.30;;;;;;;14.48;92.93;97534.11;2170078;82;21028;-78
2021/08/06 09:42:01;;;;;;;3.62;3.33;;;;;;;14.54;93.53;97530.87;2168250;82;20985;-78
2021/08/06 09:45:02;;;;;;;2.90;2.70;;;;;;;14.62;93.21;97532.86;2168880;82;20964;-78
2021/08/06 09:48:03;;;;;;;3.35;3.10;;;;;;;14.62;92.89;97538.12;2169205;82;21388;-77
2021/08/06 09:51:03;;;;;;;3.40;3.20;;;;;;;14.66;92.53;97533.65;2168161;82;21332;-77
2021/08/06 09:54:04;;;;;;;3.30;3.10;;;;;;;14.66;92.53;97533.65;2168507;82;21000;-77
2021/08/06 09:57:04;;;;;;;5.10;3.55;;;;;;;14.66;92.92;97536.28;2167976;82;20988;-78
2021/08/06 10:00:04;;;;;;;3.50;3.22;;;;;;;14.65;93.03;97547.23;2168017;82;20996;-78
2021/08/06 10:03:05;;;;;;;3.27;2.98;;;;;;;14.64;92.90;97551.21;2168931;82;20980;-78
2021/08/06 10:06:06;;;;;;;3.62;2.75;;;;;;;14.66;92.48;97546.33;2170047;82;21076;-77
2021/08/06 10:09:06;;;;;;;3.27;3.08;;;;;;;14.77;92.73;97551.80;2168965;81;21356;-78
2021/08/06 10:12:07;;;;;;;3.85;3.10;;;;;;;14.77;92.37;97553.11;2168752;82;21428;-78
2021/08/06 10:15:07;;;;;;;3.87;3.22;;;;;;;14.73;92.29;97561.94;2168852;82;20956;-78
2021/08/06 10:18:08;;;;;;;3.30;3.10;;;;;;;14.68;92.17;97565.12;2169650;82;20972;-78
2021/08/06 10:21:08;;;;;;;3.50;3.30;;;;;;;14.60;91.91;97570.12;2171155;82;21388;-78
2021/08/06 10:24:09;;;;;;;4.85;3.42;;;;;;;14.57;92.49;97562.77;2169754;82;21364;-78
2021/08/06 10:27:09;;;;;;;4.28;3.95;;;;;;;14.55;92.72;97566.73;2170160;82;21043;-78
2021/08/06 10:30:10;;;;;;;4.60;4.12;;;;;;;14.50;92.40;97577.80;2169468;81;21036;-78
2021/08/06 10:33:10;;;;;;;5.03;4.62;;;;;;;14.46;92.58;97576.16;2169164;82;20988;-78
2021/08/06 10:36:11;;;;;;;5.03;3.30;;;;;;;14.43;92.69;97582.79;2170370;82;21291;-78
2021/08/06 10:39:12;;;;;;;3.92;3.55;;;;;;;14.38;92.50;97592.50;2168805;82;20977;-78
2021/08/06 10:42:13;;;;;;;3.98;3.67;;;;;;;14.36;92.33;97598.23;2169442;82;20975;-78
2021/08/06 10:45:14;;;;;;;3.27;3.00;;;;;;;14.33;92.23;97601.80;2168509;82;21336;-78
2021/08/06 10:48:14;;;;;;;3.17;2.87;;;;;;;14.34;92.17;97605.28;2169944;82;20995;-78
2021/08/06 10:51:18;;;;;;;3.55;3.25;;;;;;;14.33;91.86;97614.05;2169730;82;21004;-79
2021/08/06 10:54:18;;;;;;;3.25;2.95;;;;;;;14.34;92.03;97610.53;2170523;82;21735;-78
2021/08/06 10:57:19;;;;;;;5.70;3.47;;;;;;;14.34;91.62;97612.70;2170116;82;20986;-77
2021/08/06 11:00:20;;;;;;;3.77;3.47;;;;;;;14.36;91.67;97611.36;2169880;82;21047;-79
2021/08/06 11:03:20;;;;;;;3.60;3.30;;;;;;;14.37;91.51;97618.34;2169857;82;20996;-77
2021/08/06 11:06:21;;;;;;;6.10;4.30;;;;;;;14.31;91.84;97621.97;2169123;82;21035;-78
2021/08/06 11:09:21;;;;;;;7.35;4.37;;;;;;;14.28;92.00;97631.22;2168411;82;21015;-77
2021/08/06 11:12:21;;;;;;;6.78;4.15;;;;;;;14.26;92.84;97629.53;2168892;82;20964;-78
2021/08/06 11:15:22;;;;;;;4.22;3.92;;;;;;;14.26;92.57;97625.14;2169006;82;20945;-77
2021/08/06 11:18:22;;;;;;;5.05;4.65;;;;;;;14.29;92.92;97629.01;2167629;82;20937;-78
2021/08/06 11:21:23;;;;;;;5.50;5.05;;;;;;;14.30;92.56;97625.94;2169329;82;21356;-78
2021/08/06 11:59:44;;;;;;;5.58;5.08;;;;;;;14.38;92.46;97642.83;2236975;79;22601;-77
2021/08/06 12:02:44;;;;;;;5.92;5.10;;;;;;;14.28;92.99;97647.42;2187908;81;21348;-77
2021/08/06 12:05:45;;;;;;;7.05;5.17;;;;;;;14.30;92.86;97644.31;2187016;81;20956;-77
2021/08/06 12:08:45;;;;;;;5.72;5.25;;;;;;;14.36;92.91;97659.92;2187946;81;20940;-78
2021/08/06 12:11:46;;;;;;;5.17;4.67;;;;;;;14.39;92.81;97656.37;2188504;81;20983;-78
2021/08/06 12:14:46;;;;;;;5.37;4.90;;;;;;;14.44;92.93;97658.03;2188904;81;21367;-79
2021/08/06 12:17:47;;;;;;;5.33;4.83;;;;;;;14.52;92.82;97656.09;2189060;81;20989;-78
2021/08/06 12:20:47;;;;;;;4.40;4.10;;;;;;;14.55;92.60;97656.02;2189275;81;21051;-78
2021/08/06 12:23:48;;;;;;;5.62;5.22;;;;;;;14.57;92.62;97678.31;2188979;81;20996;-78
2021/08/06 12:26:49;;;;;;;6.72;4.60;;;;;;;14.56;92.95;97665.62;2188873;81;21651;-78
2021/08/06 12:29:49;;;;;;;4.65;4.25;;;;;;;14.64;92.90;97670.25;2188538;81;20980;-77
2021/08/06 12:32:50;;;;;;;4.20;3.90;;;;;;;14.76;91.86;97693.23;2188022;81;21050;-78
2021/08/06 12:35:50;;;;;;;4.50;4.12;;;;;;;15.01;91.73;97679.92;2187927;81;20948;-79
2021/08/06 12:38:51;;;;;;;5.05;4.65;;;;;;;15.23;91.41;97667.97;2188836;81;21011;-77
2021/08/06 12:41:51;;;;;;;4.92;4.30;;;;;;;15.19;91.25;97666.78;2188798;81;20971;-77
2021/08/06 12:44:52;;;;;;;7.50;5.65;;;;;;;15.06;91.79;97675.42;2189604;81;20937;-77
2021/08/06 12:47:52;;;;;;;5.47;5.08;;;;;;;14.89;92.31;97671.02;2189259;81;21418;-78
2021/08/06 12:50:53;;;;;;;6.00;5.45;;;;;;;14.76;92.37;97668.27;2188617;81;21347;-78
2021/08/06 12:53:53;;;;;;;5.97;5.47;;;;;;;14.66;93.00;97670.22;2189162;81;20971;-78
2021/08/06 12:56:54;;;;;;;7.58;6.97;;;;;;;14.59;93.20;97672.12;2189084;81;20971;-78
2021/08/06 12:59:54;;;;;;;5.28;4.72;;;;;;;14.55;93.87;97702.42;2173268;81;20980;-77
2021/08/06 13:02:56;;;;;;;7.60;3.90;;;;;;;14.55;92.93;97700.66;2173357;82;21372;-79
2021/08/06 13:05:56;;;;;;;5.00;4.60;;;;;;;14.57;91.05;97713.31;2172555;82;21004;-78
2021/08/06 13:08:57;;;;;;;4.80;4.30;;;;;;;14.65;91.02;97711.38;2172458;81;20968;-78
2021/08/06 13:11:58;;;;;;;4.60;3.92;;;;;;;14.67;91.36;97720.53;2172267;81;21012;-78
2021/08/06 13:14:58;;;;;;;4.90;4.28;;;;;;;14.72;91.44;97721.74;2171640;81;21392;-76
2021/08/06 13:17:59;;;;;;;5.15;4.17;;;;;;;14.87;93.51;97718.80;2172130;82;20988;-78
2021/08/06 13:21:00;;;;;;;4.05;3.75;;;;;;;15.37;91.21;97724.60;2172764;81;20952;-79
2021/08/06 13:24:00;;;;;;;5.17;4.67;;;;;;;15.49;90.10;97729.10;2172845;82;20937;-79
2021/08/06 13:27:01;;;;;;;8.30;4.60;;;;;;;15.54;89.12;97731.61;2172777;81;20988;-79
2021/08/06 13:30:01;;;;;;;5.95;3.77;;;;;;;15.58;88.60;97726.27;2172815;82;20956;-79
2021/08/06 13:33:02;;;;;;;4.65;4.25;;;;;;;15.53;87.68;97729.89;2172262;82;20938;-78
2021/08/06 13:36:02;;;;;;;4.95;4.17;;;;;;;15.49;88.30;97728.23;2171463;81;20988;-79
2021/08/06 13:39:03;;;;;;;4.67;3.83;;;;;;;15.46;88.20;97734.89;2171900;82;21032;-79
2021/08/06 13:42:03;;;;;;;5.65;3.75;;;;;;;15.49;87.27;97729.55;2172011;81;21043;-79
2021/08/06 13:45:04;;;;;;;3.80;3.15;;;;;;;15.57;87.74;97730.22;2171417;82;21386;-79
2021/08/06 13:48:06;;;;;;;5.28;2.90;;;;;;;15.65;86.48;97730.95;2171994;81;20929;-78
2021/08/06 13:51:06;;;;;;;6.25;2.58;;;;;;;15.82;85.78;97745.84;2171633;81;20988;-78
2021/08/06 13:54:07;;;;;;;4.67;2.30;;;;;;;15.95;85.05;97745.06;2171623;81;20945;-78
2021/08/06 13:57:08;;;;;;;6.22;2.77;;;;;;;15.99;84.82;97749.79;2171533;82;20964;-77
2021/08/06 14:00:08;;;;;;;2.98;2.52;;;;;;;16.20;87.42;97755.33;2187916;81;20980;-79
2021/08/06 14:03:09;;;;;;;3.35;3.05;;;;;;;16.29;83.92;97758.16;2188447;81;20968;-79
2021/08/06 14:06:10;;;;;;;3.58;3.10;;;;;;;16.01;82.94;97762.45;2189435;81;20959;-78
2021/08/06 14:09:11;;;;;;;3.45;3.00;;;;;;;15.80;83.78;97766.52;2189439;81;20976;-75
2021/08/06 14:12:11;;;;;;;5.15;2.98;;;;;;;15.72;83.47;97764.54;2189048;81;20991;-78
2021/08/06 14:15:12;;;;;;;3.17;2.60;;;;;;;15.65;84.62;97781.38;2188927;81;21008;-81
2021/08/06 14:18:12;;;;;;;3.08;2.70;;;;;;;15.59;82.37;97783.69;2188688;81;21011;-79
2021/08/06 14:21:13;;;;;;;3.72;2.30;;;;;;;15.45;81.78;97802.84;2189247;81;20967;-81
2021/08/06 14:24:14;;;;;;;4.15;2.20;;;;;;;15.33;82.01;97818.47;2189499;81;20964;-80
2021/08/06 14:27:14;;;;;;;5.17;2.17;;;;;;;15.42;81.12;97814.76;2189506;81;20955;-82
2021/08/06 14:30:14;;;;;;;2.95;2.20;;;;;;;15.37;79.40;97816.63;2188867;81;21423;-81
2021/08/06 14:33:15;;;;;;;3.22;2.10;;;;;;;15.24;80.42;97823.48;2189760;81;21351;-80
2021/08/06 14:36:16;;;;;;;4.80;2.10;;;;;;;15.19;80.04;97820.10;2189182;81;21023;-78
2021/08/06 14:39:17;;;;;;;2.95;2.20;;;;;;;15.35;79.75;97823.23;2189111;81;21003;-79
2021/08/06 14:42:18;;;;;;;2.62;2.42;;;;;;;15.29;77.61;97836.08;2189417;81;21297;-78